sensor_id;sensor_type;location;lat;lon;timestamp;P1;P2;P0
80935;PMS7003;70392;51.144;17.050;2023-09-07T00:00:59;18;14;10
80935;PMS7003;70392;51.144;17.050;2023-09-07T00:03:27;14;13;8
80935;PMS7003;70392;51.144;17.050;2023-09-07T00:05:44;19;19;11
80935;PMS7003;70392;51.144;17.050;2023-09-07T00:08:09;15;15;12
80935;PMS7003;70392;51.144;17.050;2023-09-07T00:10:26;12;12;10
80935;PMS7003;70392;51.144;17.050;2023-09-07T00:12:42;18;16;13
80935;PMS7003;70392;51.144;17.050;2023-09-07T00:15:03;21;18;11
80935;PMS7003;70392;51.144;17.050;2023-09-07T00:17:23;17;16;12
80935;PMS7003;70392;51.144;17.050;2023-09-07T00:19:40;22;19;13
80935;PMS7003;70392;51.144;17.050;2023-09-07T00:22:02;26;21;12
80935;PMS7003;70392;51.144;17.050;2023-09-07T00:24:19;17;17;12
80935;PMS7003;70392;51.144;17.050;2023-09-07T00:26:38;19;18;12
80935;PMS7003;70392;51.144;17.050;2023-09-07T00:28:54;21;17;10
80935;PMS7003;70392;51.144;17.050;2023-09-07T00:31:10;20;18;11
80935;PMS7003;70392;51.144;17.050;2023-09-07T00:33:26;16;16;9
80935;PMS7003;70392;51.144;17.050;2023-09-07T00:35:42;20;18;14
80935;PMS7003;70392;51.144;17.050;2023-09-07T00:37:59;23;19;12
80935;PMS7003;70392;51.144;17.050;2023-09-07T00:40:51;18;17;13
80935;PMS7003;70392;51.144;17.050;2023-09-07T00:43:11;21;21;12
80935;PMS7003;70392;51.144;17.050;2023-09-07T00:45:27;18;18;11
80935;PMS7003;70392;51.144;17.050;2023-09-07T00:47:44;20;19;11
80935;PMS7003;70392;51.144;17.050;2023-09-07T00:50:03;17;14;13
80935;PMS7003;70392;51.144;17.050;2023-09-07T00:52:23;13;12;6
80935;PMS7003;70392;51.144;17.050;2023-09-07T00:54:39;22;17;13
80935;PMS7003;70392;51.144;17.050;2023-09-07T00:56:57;18;18;10
80935;PMS7003;70392;51.144;17.050;2023-09-07T00:59:14;19;19;12
80935;PMS7003;70392;51.144;17.050;2023-09-07T01:01:30;16;16;12
80935;PMS7003;70392;51.144;17.050;2023-09-07T01:03:54;23;21;12
80935;PMS7003;70392;51.144;17.050;2023-09-07T01:06:15;15;14;11
80935;PMS7003;70392;51.144;17.050;2023-09-07T01:08:48;19;17;11
80935;PMS7003;70392;51.144;17.050;2023-09-07T01:13:34;22;20;14
80935;PMS7003;70392;51.144;17.050;2023-09-07T01:15:50;18;18;12
80935;PMS7003;70392;51.144;17.050;2023-09-07T01:18:18;19;19;13
80935;PMS7003;70392;51.144;17.050;2023-09-07T01:20:36;17;17;13
80935;PMS7003;70392;51.144;17.050;2023-09-07T01:22:54;18;18;12
80935;PMS7003;70392;51.144;17.050;2023-09-07T01:25:13;17;17;13
80935;PMS7003;70392;51.144;17.050;2023-09-07T01:27:30;19;19;13
80935;PMS7003;70392;51.144;17.050;2023-09-07T01:29:49;19;16;11
80935;PMS7003;70392;51.144;17.050;2023-09-07T01:32:08;22;21;13
80935;PMS7003;70392;51.144;17.050;2023-09-07T01:34:25;21;21;15
80935;PMS7003;70392;51.144;17.050;2023-09-07T01:36:44;16;14;11
80935;PMS7003;70392;51.144;17.050;2023-09-07T01:39:00;16;16;12
80935;PMS7003;70392;51.144;17.050;2023-09-07T01:41:29;16;16;12
80935;PMS7003;70392;51.144;17.050;2023-09-07T01:43:46;20;17;13
80935;PMS7003;70392;51.144;17.050;2023-09-07T01:46:02;17;16;13
80935;PMS7003;70392;51.144;17.050;2023-09-07T01:48:20;29;18;13
80935;PMS7003;70392;51.144;17.050;2023-09-07T01:50:37;24;21;12
80935;PMS7003;70392;51.144;17.050;2023-09-07T01:52:56;16;16;13
80935;PMS7003;70392;51.144;17.050;2023-09-07T01:55:11;20;18;13
80935;PMS7003;70392;51.144;17.050;2023-09-07T01:57:27;9;7;2
80935;PMS7003;70392;51.144;17.050;2023-09-07T01:59:47;20;18;11
80935;PMS7003;70392;51.144;17.050;2023-09-07T02:02:11;21;18;13
80935;PMS7003;70392;51.144;17.050;2023-09-07T02:04:28;18;18;12
80935;PMS7003;70392;51.144;17.050;2023-09-07T02:06:45;23;21;12
80935;PMS7003;70392;51.144;17.050;2023-09-07T02:09:01;20;18;9
80935;PMS7003;70392;51.144;17.050;2023-09-07T02:11:20;25;22;13
80935;PMS7003;70392;51.144;17.050;2023-09-07T02:13:43;16;15;10
80935;PMS7003;70392;51.144;17.050;2023-09-07T02:16:04;20;16;10
80935;PMS7003;70392;51.144;17.050;2023-09-07T02:18:21;17;16;12
80935;PMS7003;70392;51.144;17.050;2023-09-07T02:20:40;15;15;10
80935;PMS7003;70392;51.144;17.050;2023-09-07T02:22:59;16;16;11
80935;PMS7003;70392;51.144;17.050;2023-09-07T02:25:16;19;18;14
80935;PMS7003;70392;51.144;17.050;2023-09-07T02:27:33;16;14;12
80935;PMS7003;70392;51.144;17.050;2023-09-07T02:29:49;18;18;12
80935;PMS7003;70392;51.144;17.050;2023-09-07T02:32:12;18;16;11
80935;PMS7003;70392;51.144;17.050;2023-09-07T02:34:28;16;15;12
80935;PMS7003;70392;51.144;17.050;2023-09-07T02:36:44;14;13;10
80935;PMS7003;70392;51.144;17.050;2023-09-07T02:39:00;18;15;12
80935;PMS7003;70392;51.144;17.050;2023-09-07T02:41:20;14;14;12
80935;PMS7003;70392;51.144;17.050;2023-09-07T02:43:39;15;14;11
80935;PMS7003;70392;51.144;17.050;2023-09-07T02:45:56;14;12;10
80935;PMS7003;70392;51.144;17.050;2023-09-07T02:48:14;16;13;10
80935;PMS7003;70392;51.144;17.050;2023-09-07T02:50:32;14;14;12
80935;PMS7003;70392;51.144;17.050;2023-09-07T02:52:49;21;17;12
80935;PMS7003;70392;51.144;17.050;2023-09-07T02:55:09;15;14;11
80935;PMS7003;70392;51.144;17.050;2023-09-07T02:57:26;25;22;15
80935;PMS7003;70392;51.144;17.050;2023-09-07T02:59:45;17;16;12
80935;PMS7003;70392;51.144;17.050;2023-09-07T03:02:01;14;13;10
80935;PMS7003;70392;51.144;17.050;2023-09-07T03:04:19;15;15;12
80935;PMS7003;70392;51.144;17.050;2023-09-07T03:06:35;17;17;12
80935;PMS7003;70392;51.144;17.050;2023-09-07T03:08:55;23;15;11
80935;PMS7003;70392;51.144;17.050;2023-09-07T03:11:22;15;14;12
80935;PMS7003;70392;51.144;17.050;2023-09-07T03:13:38;19;17;13
80935;PMS7003;70392;51.144;17.050;2023-09-07T03:15:55;22;18;13
80935;PMS7003;70392;51.144;17.050;2023-09-07T03:18:30;20;15;10
80935;PMS7003;70392;51.144;17.050;2023-09-07T03:20:47;14;14;10
80935;PMS7003;70392;51.144;17.050;2023-09-07T03:23:05;19;16;11
80935;PMS7003;70392;51.144;17.050;2023-09-07T03:25:29;17;16;12
80935;PMS7003;70392;51.144;17.050;2023-09-07T03:27:45;17;16;11
80935;PMS7003;70392;51.144;17.050;2023-09-07T03:30:04;17;15;10
80935;PMS7003;70392;51.144;17.050;2023-09-07T03:32:24;15;14;11
80935;PMS7003;70392;51.144;17.050;2023-09-07T03:34:47;21;19;12
80935;PMS7003;70392;51.144;17.050;2023-09-07T03:37:03;13;13;9
80935;PMS7003;70392;51.144;17.050;2023-09-07T03:39:21;15;14;10
80935;PMS7003;70392;51.144;17.050;2023-09-07T03:41:38;21;20;12
80935;PMS7003;70392;51.144;17.050;2023-09-07T03:44:08;15;15;7
80935;PMS7003;70392;51.144;17.050;2023-09-07T03:46:24;14;14;11
80935;PMS7003;70392;51.144;17.050;2023-09-07T03:48:40;13;13;11
80935;PMS7003;70392;51.144;17.050;2023-09-07T03:50:57;19;15;11
80935;PMS7003;70392;51.144;17.050;2023-09-07T03:53:15;13;13;11
80935;PMS7003;70392;51.144;17.050;2023-09-07T03:57:56;17;17;11
80935;PMS7003;70392;51.144;17.050;2023-09-07T04:00:13;15;14;11
80935;PMS7003;70392;51.144;17.050;2023-09-07T04:02:34;14;10;6
80935;PMS7003;70392;51.144;17.050;2023-09-07T04:04:53;12;12;8
80935;PMS7003;70392;51.144;17.050;2023-09-07T04:07:10;15;15;12
80935;PMS7003;70392;51.144;17.050;2023-09-07T04:09:27;16;16;12
80935;PMS7003;70392;51.144;17.050;2023-09-07T04:11:43;19;15;11
80935;PMS7003;70392;51.144;17.050;2023-09-07T04:14:00;16;13;10
80935;PMS7003;70392;51.144;17.050;2023-09-07T04:16:16;17;16;11
80935;PMS7003;70392;51.144;17.050;2023-09-07T04:18:34;16;16;12
80935;PMS7003;70392;51.144;17.050;2023-09-07T04:23:21;14;14;10
80935;PMS7003;70392;51.144;17.050;2023-09-07T04:25:37;16;16;12
80935;PMS7003;70392;51.144;17.050;2023-09-07T04:28:03;17;17;13
80935;PMS7003;70392;51.144;17.050;2023-09-07T04:30:20;14;14;11
80935;PMS7003;70392;51.144;17.050;2023-09-07T04:32:43;20;17;12
80935;PMS7003;70392;51.144;17.050;2023-09-07T04:34:59;17;14;11
80935;PMS7003;70392;51.144;17.050;2023-09-07T04:37:17;19;17;12
80935;PMS7003;70392;51.144;17.050;2023-09-07T04:39:33;20;19;13
80935;PMS7003;70392;51.144;17.050;2023-09-07T04:41:51;20;18;10
80935;PMS7003;70392;51.144;17.050;2023-09-07T04:44:08;19;18;13
80935;PMS7003;70392;51.144;17.050;2023-09-07T04:46:24;18;16;12
80935;PMS7003;70392;51.144;17.050;2023-09-07T04:48:43;12;7;4
80935;PMS7003;70392;51.144;17.050;2023-09-07T04:51:04;24;17;12
80935;PMS7003;70392;51.144;17.050;2023-09-07T04:53:22;27;19;12
80935;PMS7003;70392;51.144;17.050;2023-09-07T04:55:38;18;15;12
80935;PMS7003;70392;51.144;17.050;2023-09-07T04:57:54;17;17;12
80935;PMS7003;70392;51.144;17.050;2023-09-07T05:00:11;17;16;12
80935;PMS7003;70392;51.144;17.050;2023-09-07T05:02:29;17;15;9
80935;PMS7003;70392;51.144;17.050;2023-09-07T05:04:46;27;19;13
80935;PMS7003;70392;51.144;17.050;2023-09-07T05:07:13;22;19;12
80935;PMS7003;70392;51.144;17.050;2023-09-07T05:09:29;27;21;15
80935;PMS7003;70392;51.144;17.050;2023-09-07T05:11:47;19;17;13
80935;PMS7003;70392;51.144;17.050;2023-09-07T05:14:03;112;99;57
80935;PMS7003;70392;51.144;17.050;2023-09-07T05:16:20;191;167;93
80935;PMS7003;70392;51.144;17.050;2023-09-07T05:18:36;105;96;51
80935;PMS7003;70392;51.144;17.050;2023-09-07T05:20:52;26;25;20
80935;PMS7003;70392;51.144;17.050;2023-09-07T05:23:08;23;20;13
80935;PMS7003;70392;51.144;17.050;2023-09-07T05:25:24;23;20;14
80935;PMS7003;70392;51.144;17.050;2023-09-07T05:27:53;17;17;11
80935;PMS7003;70392;51.144;17.050;2023-09-07T05:30:09;19;18;13
80935;PMS7003;70392;51.144;17.050;2023-09-07T05:32:30;24;21;10
80935;PMS7003;70392;51.144;17.050;2023-09-07T05:34:46;28;19;12
80935;PMS7003;70392;51.144;17.050;2023-09-07T05:37:02;21;21;15
80935;PMS7003;70392;51.144;17.050;2023-09-07T05:39:18;25;25;16
80935;PMS7003;70392;51.144;17.050;2023-09-07T05:41:39;25;25;17
80935;PMS7003;70392;51.144;17.050;2023-09-07T05:44:15;27;23;13
80935;PMS7003;70392;51.144;17.050;2023-09-07T05:46:32;23;23;17
80935;PMS7003;70392;51.144;17.050;2023-09-07T05:48:48;24;21;13
80935;PMS7003;70392;51.144;17.050;2023-09-07T05:51:06;29;27;17
80935;PMS7003;70392;51.144;17.050;2023-09-07T05:53:27;56;42;27
80935;PMS7003;70392;51.144;17.050;2023-09-07T05:55:44;25;21;14
80935;PMS7003;70392;51.144;17.050;2023-09-07T05:58:03;38;30;20
80935;PMS7003;70392;51.144;17.050;2023-09-07T06:00:21;30;29;17
80935;PMS7003;70392;51.144;17.050;2023-09-07T06:02:38;24;23;18
80935;PMS7003;70392;51.144;17.050;2023-09-07T06:04:55;24;22;16
80935;PMS7003;70392;51.144;17.050;2023-09-07T06:07:12;26;24;16
80935;PMS7003;70392;51.144;17.050;2023-09-07T06:09:30;30;28;19
80935;PMS7003;70392;51.144;17.050;2023-09-07T06:11:47;29;28;19
80935;PMS7003;70392;51.144;17.050;2023-09-07T06:14:05;25;21;16
80935;PMS7003;70392;51.144;17.050;2023-09-07T06:16:21;29;27;17
80935;PMS7003;70392;51.144;17.050;2023-09-07T06:18:43;31;27;19
80935;PMS7003;70392;51.144;17.050;2023-09-07T06:20:59;30;25;17
80935;PMS7003;70392;51.144;17.050;2023-09-07T06:23:15;63;49;28
80935;PMS7003;70392;51.144;17.050;2023-09-07T06:25:32;63;51;33
80935;PMS7003;70392;51.144;17.050;2023-09-07T06:27:50;45;36;23
80935;PMS7003;70392;51.144;17.050;2023-09-07T06:30:07;32;30;20
80935;PMS7003;70392;51.144;17.050;2023-09-07T06:32:27;31;30;19
80935;PMS7003;70392;51.144;17.050;2023-09-07T06:34:43;31;30;19
80935;PMS7003;70392;51.144;17.050;2023-09-07T06:37:04;36;31;21
80935;PMS7003;70392;51.144;17.050;2023-09-07T06:39:20;29;27;18
80935;PMS7003;70392;51.144;17.050;2023-09-07T06:41:37;27;23;15
80935;PMS7003;70392;51.144;17.050;2023-09-07T06:43:53;34;25;17
80935;PMS7003;70392;51.144;17.050;2023-09-07T06:46:09;59;48;29
80935;PMS7003;70392;51.144;17.050;2023-09-07T06:48:35;41;35;22
80935;PMS7003;70392;51.144;17.050;2023-09-07T06:50:51;33;31;20
80935;PMS7003;70392;51.144;17.050;2023-09-07T06:53:07;51;43;28
80935;PMS7003;70392;51.144;17.050;2023-09-07T06:55:24;36;28;19
80935;PMS7003;70392;51.144;17.050;2023-09-07T06:57:40;26;26;17
80935;PMS7003;70392;51.144;17.050;2023-09-07T06:59:58;33;29;18
80935;PMS7003;70392;51.144;17.050;2023-09-07T07:02:22;27;27;18
80935;PMS7003;70392;51.144;17.050;2023-09-07T07:04:37;34;27;19
80935;PMS7003;70392;51.144;17.050;2023-09-07T07:06:54;32;27;18
80935;PMS7003;70392;51.144;17.050;2023-09-07T07:09:10;35;29;19
80935;PMS7003;70392;51.144;17.050;2023-09-07T07:11:26;22;21;16
80935;PMS7003;70392;51.144;17.050;2023-09-07T07:13:42;38;27;18
80935;PMS7003;70392;51.144;17.050;2023-09-07T07:15:59;31;27;18
80935;PMS7003;70392;51.144;17.050;2023-09-07T07:18:35;11;10;5
80935;PMS7003;70392;51.144;17.050;2023-09-07T07:20:51;33;27;19
80935;PMS7003;70392;51.144;17.050;2023-09-07T07:23:09;30;26;18
80935;PMS7003;70392;51.144;17.050;2023-09-07T07:25:25;34;31;19
80935;PMS7003;70392;51.144;17.050;2023-09-07T07:27:42;35;32;21
80935;PMS7003;70392;51.144;17.050;2023-09-07T07:29:58;29;28;19
80935;PMS7003;70392;51.144;17.050;2023-09-07T07:32:14;40;31;21
80935;PMS7003;70392;51.144;17.050;2023-09-07T07:34:30;39;31;21
80935;PMS7003;70392;51.144;17.050;2023-09-07T07:36:46;30;27;17
80935;PMS7003;70392;51.144;17.050;2023-09-07T07:39:03;32;28;20
80935;PMS7003;70392;51.144;17.050;2023-09-07T07:41:20;26;26;18
80935;PMS7003;70392;51.144;17.050;2023-09-07T07:43:36;27;25;19
80935;PMS7003;70392;51.144;17.050;2023-09-07T07:45:53;24;24;15
80935;PMS7003;70392;51.144;17.050;2023-09-07T07:48:09;29;28;19
80935;PMS7003;70392;51.144;17.050;2023-09-07T07:50:28;32;30;20
80935;PMS7003;70392;51.144;17.050;2023-09-07T07:52:51;35;31;20
80935;PMS7003;70392;51.144;17.050;2023-09-07T07:55:08;29;29;20
80935;PMS7003;70392;51.144;17.050;2023-09-07T07:57:25;26;26;21
80935;PMS7003;70392;51.144;17.050;2023-09-07T07:59:41;28;27;19
80935;PMS7003;70392;51.144;17.050;2023-09-07T08:02:00;26;23;16
80935;PMS7003;70392;51.144;17.050;2023-09-07T08:04:16;32;28;16
80935;PMS7003;70392;51.144;17.050;2023-09-07T08:06:33;27;25;17
80935;PMS7003;70392;51.144;17.050;2023-09-07T08:08:55;31;28;18
80935;PMS7003;70392;51.144;17.050;2023-09-07T08:11:45;28;26;17
80935;PMS7003;70392;51.144;17.050;2023-09-07T08:14:01;23;23;16
80935;PMS7003;70392;51.144;17.050;2023-09-07T08:16:18;31;24;16
80935;PMS7003;70392;51.144;17.050;2023-09-07T08:18:34;28;28;18
80935;PMS7003;70392;51.144;17.050;2023-09-07T08:20:53;20;18;14
80935;PMS7003;70392;51.144;17.050;2023-09-07T08:23:10;23;20;16
80935;PMS7003;70392;51.144;17.050;2023-09-07T08:25:27;31;30;17
80935;PMS7003;70392;51.144;17.050;2023-09-07T08:27:43;24;24;13
80935;PMS7003;70392;51.144;17.050;2023-09-07T08:30:06;26;26;17
80935;PMS7003;70392;51.144;17.050;2023-09-07T08:32:26;25;24;16
